createdAt,value
2023-01-13T00:00:15.579Z,5.30
2023-01-13T00:02:42.345Z,4.80
2023-01-13T00:05:10.343Z,5.00
2023-01-13T00:07:38.395Z,4.90
2023-01-13T00:10:05.697Z,4.80
2023-01-13T00:12:32.361Z,4.80
2023-01-13T00:14:58.962Z,4.60
2023-01-13T00:17:25.624Z,4.60
2023-01-13T00:19:52.329Z,5.30
2023-01-13T00:22:19.038Z,4.70
2023-01-13T00:24:45.648Z,4.50
2023-01-13T00:27:12.304Z,5.10
2023-01-13T00:29:38.903Z,4.70
2023-01-13T00:32:05.618Z,4.10
2023-01-13T00:34:32.285Z,4.70
2023-01-13T00:36:58.969Z,4.60
2023-01-13T00:39:25.620Z,4.20
2023-01-13T00:42:10.740Z,4.10
2023-01-13T00:44:37.350Z,4.10
2023-01-13T00:47:03.998Z,4.60
2023-01-13T00:49:30.695Z,5.00
2023-01-13T00:51:57.293Z,4.00
2023-01-13T00:54:24.013Z,4.50
2023-01-13T00:56:50.606Z,4.50
2023-01-13T00:59:17.258Z,4.30
2023-01-13T01:01:44.109Z,4.10
2023-01-13T01:04:11.292Z,4.10
2023-01-13T01:06:38.085Z,4.00
2023-01-13T01:09:05.598Z,3.60
2023-01-13T01:11:33.093Z,3.80
2023-01-13T01:14:02.508Z,3.80
2023-01-13T01:16:31.121Z,3.60
2023-01-13T01:18:58.471Z,3.90
2023-01-13T01:21:27.261Z,4.20
2023-01-13T01:23:54.844Z,4.00
2023-01-13T01:26:24.306Z,4.30
2023-01-13T01:28:51.045Z,3.90
2023-01-13T01:31:20.675Z,4.30
2023-01-13T01:33:47.686Z,3.80
2023-01-13T01:36:17.128Z,3.90
2023-01-13T01:38:44.808Z,3.90
2023-01-13T01:41:15.744Z,3.90
2023-01-13T01:44:02.324Z,3.80
2023-01-13T01:46:43.526Z,4.00
2023-01-13T01:49:33.657Z,4.00
2023-01-13T01:54:54.530Z,3.40
2023-01-13T01:57:33.199Z,2.60
2023-01-13T02:00:01.191Z,3.40
2023-01-13T02:02:30.596Z,3.10
2023-01-13T02:04:58.092Z,3.70
2023-01-13T02:07:28.748Z,3.20
2023-01-13T02:09:57.823Z,3.10
2023-01-13T02:12:34.764Z,3.00
2023-01-13T02:15:10.790Z,2.80
2023-01-13T02:17:58.992Z,2.90
2023-01-13T02:20:50.769Z,2.70
2023-01-13T02:23:57.767Z,2.60
2023-01-13T02:27:02.383Z,2.60
2023-01-13T02:30:09.902Z,2.50
2023-01-13T02:32:55.579Z,2.30
2023-01-13T02:35:35.703Z,2.10
2023-01-13T02:38:03.438Z,2.40
2023-01-13T02:40:37.905Z,2.70
2023-01-13T02:43:30.133Z,2.70
2023-01-13T02:46:03.378Z,3.80
2023-01-13T02:48:31.732Z,2.80
2023-01-13T02:51:05.809Z,2.90
2023-01-13T02:53:45.907Z,4.00
2023-01-13T02:56:15.171Z,2.60
2023-01-13T02:58:45.375Z,3.50
2023-01-13T03:01:12.072Z,3.00
2023-01-13T03:03:38.762Z,2.70
2023-01-13T03:06:47.631Z,2.70
2023-01-13T03:09:33.017Z,2.40
2023-01-13T03:12:10.638Z,2.30
2023-01-13T03:14:56.636Z,2.50
2023-01-13T03:17:39.976Z,2.80
2023-01-13T03:20:18.893Z,2.60
2023-01-13T03:23:01.588Z,2.50
2023-01-13T03:25:43.449Z,2.80
2023-01-13T03:28:22.468Z,2.80
2023-01-13T03:30:59.494Z,2.60
2023-01-13T03:33:31.362Z,2.10
2023-01-13T03:36:04.288Z,2.70
2023-01-13T03:38:36.834Z,2.70
2023-01-13T03:41:09.676Z,3.20
2023-01-13T03:44:20.777Z,2.70
2023-01-13T03:46:57.292Z,2.40
2023-01-13T03:49:29.484Z,2.50
2023-01-13T03:54:30.054Z,2.60
2023-01-13T03:57:02.376Z,2.80
2023-01-13T03:59:33.311Z,2.70
2023-01-13T04:02:11.991Z,2.50
2023-01-13T04:04:44.319Z,2.30
2023-01-13T04:07:14.424Z,2.40
2023-01-13T04:09:56.941Z,2.70
2023-01-13T04:12:50.132Z,2.40
2023-01-13T04:15:18.802Z,2.50
2023-01-13T04:17:45.433Z,2.50
2023-01-13T04:20:12.976Z,3.30
2023-01-13T04:22:39.555Z,2.90
2023-01-13T04:25:06.821Z,2.70
2023-01-13T04:27:33.500Z,2.40
2023-01-13T04:30:00.151Z,2.40
2023-01-13T04:32:26.819Z,2.60
2023-01-13T04:34:53.411Z,3.20
2023-01-13T04:37:20.004Z,3.60
2023-01-13T04:39:46.667Z,3.40
2023-01-13T04:42:13.342Z,3.60
2023-01-13T04:44:39.911Z,2.50
2023-01-13T04:47:06.574Z,2.60
2023-01-13T04:49:33.273Z,2.20
2023-01-13T04:52:00.023Z,2.40
2023-01-13T04:54:26.595Z,2.40
2023-01-13T04:56:53.185Z,2.60
2023-01-13T04:59:19.778Z,2.40
2023-01-13T05:01:46.403Z,3.40
2023-01-13T05:04:15.486Z,3.40
2023-01-13T05:06:42.081Z,3.40
2023-01-13T05:09:08.663Z,3.10
2023-01-13T05:11:54.036Z,3.70
2023-01-13T05:14:39.552Z,2.70
2023-01-13T05:17:09.074Z,3.50
2023-01-13T05:19:40.815Z,3.30
2023-01-13T05:22:26.246Z,3.50
2023-01-13T05:25:11.567Z,3.50
2023-01-13T05:27:38.245Z,3.80
2023-01-13T05:30:05.800Z,3.80
2023-01-13T05:32:32.474Z,3.80
2023-01-13T05:34:59.399Z,3.30
2023-01-13T05:37:27.027Z,3.70
2023-01-13T05:40:13.227Z,4.20
2023-01-13T05:42:58.744Z,3.80
2023-01-13T05:45:25.641Z,4.10
2023-01-13T05:47:52.264Z,3.80
2023-01-13T05:50:19.008Z,4.10
2023-01-13T05:52:45.684Z,4.00
2023-01-13T05:55:12.458Z,4.00
2023-01-13T05:57:39.006Z,3.70
2023-01-13T06:00:06.086Z,3.90
2023-01-13T06:02:38.500Z,3.70
2023-01-13T06:05:05.341Z,3.90
2023-01-13T06:07:32.007Z,3.80
2023-01-13T06:09:58.659Z,4.10
2023-01-13T06:12:25.243Z,4.80
2023-01-13T06:14:51.822Z,4.20
2023-01-13T06:17:18.784Z,4.40
2023-01-13T06:19:45.399Z,4.60
2023-01-13T06:22:16.681Z,5.00
2023-01-13T06:24:45.967Z,4.80
2023-01-13T06:27:13.093Z,5.00
2023-01-13T06:29:39.764Z,5.10
2023-01-13T06:32:13.174Z,5.70
2023-01-13T06:34:42.594Z,5.50
2023-01-13T06:37:12.478Z,4.90
2023-01-13T06:39:39.497Z,4.80
2023-01-13T06:42:25.815Z,5.00
2023-01-13T06:44:53.733Z,5.00
2023-01-13T06:47:22.524Z,3.60
2023-01-13T06:49:49.261Z,3.50
2023-01-13T06:52:16.007Z,4.30
2023-01-13T06:54:42.607Z,4.90
2023-01-13T06:57:09.280Z,5.70
2023-01-13T06:59:35.911Z,5.60
2023-01-13T07:02:03.236Z,4.90
2023-01-13T07:04:29.936Z,5.30
2023-01-13T07:06:56.610Z,5.30
2023-01-13T07:09:23.456Z,5.40
2023-01-13T07:11:52.113Z,5.40
2023-01-13T07:14:38.066Z,5.00
2023-01-13T07:17:04.746Z,4.50
2023-01-13T07:19:31.381Z,4.10
2023-01-13T07:21:58.072Z,4.60
2023-01-13T07:24:25.165Z,4.40
2023-01-13T07:26:52.433Z,4.30
2023-01-13T07:29:19.192Z,4.70
2023-01-13T07:31:48.228Z,4.80
2023-01-13T07:34:16.487Z,4.50
2023-01-13T07:36:43.067Z,4.30
2023-01-13T07:39:09.705Z,3.90
2023-01-13T07:41:55.126Z,4.00
2023-01-13T07:44:21.778Z,4.10
2023-01-13T07:46:48.468Z,4.70
2023-01-13T07:49:15.223Z,4.40
2023-01-13T07:51:41.895Z,4.20
2023-01-13T07:54:08.503Z,4.70
2023-01-13T07:56:35.132Z,4.30
2023-01-13T07:59:01.947Z,4.40
2023-01-13T08:01:28.757Z,4.90
2023-01-13T08:03:56.319Z,5.10
2023-01-13T08:06:23.063Z,4.90
2023-01-13T08:08:50.113Z,5.60
2023-01-13T08:11:17.182Z,6.20
2023-01-13T08:13:44.154Z,6.00
2023-01-13T08:16:13.722Z,6.60
2023-01-13T08:18:41.687Z,6.70
2023-01-13T08:21:11.407Z,5.70
2023-01-13T08:23:38.233Z,6.90
2023-01-13T08:26:07.512Z,6.90
2023-01-13T08:28:34.752Z,7.00
2023-01-13T08:31:06.771Z,6.30
2023-01-13T08:33:33.867Z,8.00
2023-01-13T08:36:09.066Z,7.70
2023-01-13T08:38:37.172Z,8.60
2023-01-13T08:41:12.072Z,10.20
2023-01-13T08:43:38.821Z,10.40
2023-01-13T08:46:05.915Z,9.10
2023-01-13T08:48:33.564Z,8.10
2023-01-13T08:51:06.052Z,8.20
2023-01-13T08:53:32.882Z,7.50
2023-01-13T08:55:59.530Z,7.80
2023-01-13T08:58:26.281Z,8.90
2023-01-13T09:00:52.926Z,6.80
2023-01-13T09:03:19.567Z,7.20
2023-01-13T09:05:46.322Z,8.30
2023-01-13T09:08:13.337Z,7.50
2023-01-13T09:10:40.528Z,6.80
2023-01-13T09:13:11.810Z,7.10
2023-01-13T09:15:40.099Z,7.60
2023-01-13T09:18:06.981Z,7.00
2023-01-13T09:20:33.655Z,7.10
2023-01-13T09:23:00.585Z,6.90
2023-01-13T09:25:27.338Z,7.40
2023-01-13T09:27:54.041Z,7.30
2023-01-13T09:30:20.721Z,6.00
2023-01-13T09:32:47.412Z,7.70
2023-01-13T09:35:14.095Z,6.10
2023-01-13T09:37:41.274Z,6.70
2023-01-13T09:40:12.217Z,6.10
2023-01-13T09:43:19.757Z,5.80
2023-01-13T09:46:28.539Z,5.80
2023-01-13T09:48:57.600Z,6.20
2023-01-13T09:51:35.586Z,7.00
2023-01-13T09:54:32.475Z,5.80
2023-01-13T09:56:59.955Z,6.50
2023-01-13T09:59:32.610Z,5.70
2023-01-13T10:02:24.299Z,6.50
2023-01-13T10:05:25.247Z,6.80
2023-01-13T10:07:59.119Z,6.60
2023-01-13T10:10:34.872Z,7.00
2023-01-13T10:13:17.299Z,9.00
2023-01-13T10:15:56.605Z,7.20
2023-01-13T10:18:33.365Z,7.20
2023-01-13T10:21:17.001Z,6.60
2023-01-13T10:24:02.649Z,6.60
2023-01-13T10:26:44.825Z,7.30
2023-01-13T10:29:24.785Z,7.60
2023-01-13T10:31:56.287Z,6.80
2023-01-13T10:34:24.068Z,7.40
2023-01-13T10:37:06.593Z,7.10
2023-01-13T10:39:44.105Z,6.80
2023-01-13T10:42:19.931Z,7.40
2023-01-13T10:44:54.344Z,6.70
2023-01-13T10:47:24.383Z,7.90
2023-01-13T10:50:10.782Z,8.40
2023-01-13T10:52:55.093Z,8.00
2023-01-13T10:55:34.353Z,8.80
2023-01-13T10:58:17.134Z,11.90
2023-01-13T11:00:44.269Z,12.70
2023-01-13T11:03:20.606Z,9.20
2023-01-13T11:05:58.995Z,7.80
2023-01-13T11:08:47.675Z,8.10
2023-01-13T11:11:47.635Z,8.70
2023-01-13T11:14:33.201Z,6.60
2023-01-13T11:17:09.791Z,7.20
2023-01-13T11:19:42.780Z,6.40
2023-01-13T11:22:25.419Z,5.90
2023-01-13T11:25:04.957Z,7.30
2023-01-13T11:27:42.524Z,6.30
2023-01-13T11:30:31.792Z,6.90
2023-01-13T11:33:06.336Z,6.50
2023-01-13T11:35:38.127Z,6.80
2023-01-13T11:38:18.669Z,10.70
2023-01-13T11:40:50.769Z,9.60
2023-01-13T11:45:56.319Z,7.00
2023-01-13T11:48:27.243Z,9.30
2023-01-13T11:51:04.532Z,9.20
2023-01-13T11:53:49.716Z,10.30
2023-01-13T11:56:29.331Z,9.70
2023-01-13T11:59:23.780Z,10.80
2023-01-13T12:02:25.846Z,10.40
2023-01-13T12:05:19.093Z,10.50
2023-01-13T12:07:55.598Z,9.90
2023-01-13T12:10:42.876Z,9.90
2023-01-13T12:13:40.633Z,10.70
2023-01-13T12:16:25.604Z,11.80
2023-01-13T12:19:14.128Z,11.00
2023-01-13T12:22:18.533Z,11.20
2023-01-13T12:25:05.947Z,12.10
2023-01-13T12:27:47.279Z,11.20
2023-01-13T12:30:20.169Z,13.00
2023-01-13T12:32:48.325Z,12.70
2023-01-13T12:35:41.791Z,12.90
2023-01-13T12:38:16.937Z,12.80
2023-01-13T12:41:21.441Z,12.90
2023-01-13T12:44:08.153Z,12.60
2023-01-13T12:46:44.169Z,11.70
2023-01-13T12:49:23.760Z,13.30
2023-01-13T12:51:56.435Z,12.20
2023-01-13T12:54:41.183Z,9.10
2023-01-13T12:57:16.978Z,13.30
2023-01-13T13:00:04.921Z,13.70
2023-01-13T13:02:40.062Z,14.50
2023-01-13T13:05:48.933Z,14.40
2023-01-13T13:08:40.855Z,14.70
2023-01-13T13:11:32.387Z,14.70
2023-01-13T13:14:01.024Z,14.50
2023-01-13T13:16:28.756Z,15.30
2023-01-13T13:19:21.333Z,15.50
2023-01-13T13:22:12.612Z,15.40
2023-01-13T13:24:41.088Z,14.50
2023-01-13T13:27:40.847Z,15.10
2023-01-13T13:30:20.906Z,14.90
2023-01-13T13:33:00.445Z,13.40
2023-01-13T13:35:40.397Z,14.60
2023-01-13T13:39:04.499Z,14.20
2023-01-13T13:41:54.568Z,13.90
2023-01-13T13:44:59.134Z,14.30
2023-01-13T13:47:25.771Z,14.30
2023-01-13T13:49:54.657Z,14.80
2023-01-13T13:52:30.283Z,15.30
2023-01-13T13:55:09.804Z,15.20
2023-01-13T13:57:42.446Z,15.90
2023-01-13T14:00:21.602Z,14.40
2023-01-13T14:02:52.155Z,14.50
2023-01-13T14:05:22.921Z,13.00
2023-01-13T14:07:52.580Z,13.50
2023-01-13T14:10:22.755Z,14.20
2023-01-13T14:12:49.395Z,13.20
2023-01-13T14:15:32.397Z,12.80
2023-01-13T14:18:05.021Z,13.40
2023-01-13T14:20:34.611Z,12.10
2023-01-13T14:23:01.849Z,13.00
2023-01-13T14:25:54.949Z,13.10
2023-01-13T14:28:35.705Z,13.10
2023-01-13T14:31:02.874Z,12.60
2023-01-13T14:33:40.157Z,13.00
2023-01-13T14:36:06.964Z,12.80
2023-01-13T14:38:33.606Z,13.70
2023-01-13T14:41:21.005Z,12.60
2023-01-13T14:43:49.997Z,13.70
2023-01-13T14:46:17.781Z,14.20
2023-01-13T14:48:49.566Z,13.50
2023-01-13T14:51:27.852Z,13.50
2023-01-13T14:53:54.929Z,14.10
2023-01-13T14:56:42.776Z,13.50
2023-01-13T14:59:31.442Z,14.10
2023-01-13T15:01:58.480Z,14.50
2023-01-13T15:04:27.759Z,15.60
2023-01-13T15:06:57.003Z,14.40
2023-01-13T15:09:27.849Z,15.30
2023-01-13T15:11:56.355Z,15.00
2023-01-13T15:14:31.278Z,14.70
2023-01-13T15:16:58.053Z,14.00
2023-01-13T15:19:24.660Z,14.00
2023-01-13T15:21:51.381Z,14.60
2023-01-13T15:24:17.939Z,13.60
2023-01-13T15:26:44.544Z,13.70
2023-01-13T15:29:17.624Z,13.70
2023-01-13T15:31:44.365Z,14.00
2023-01-13T15:34:11.168Z,15.10
2023-01-13T15:36:37.971Z,15.50
2023-01-13T15:39:04.762Z,14.60
2023-01-13T15:41:50.252Z,14.80
2023-01-13T15:44:36.528Z,14.20
2023-01-13T15:47:07.428Z,13.20
2023-01-13T15:49:39.326Z,14.50
2023-01-13T15:52:23.560Z,13.60
2023-01-13T15:54:51.970Z,13.60
2023-01-13T15:57:34.190Z,13.00
2023-01-13T16:00:05.167Z,17.10
2023-01-13T16:02:33.729Z,15.50
2023-01-13T16:05:00.359Z,16.50
2023-01-13T16:07:27.114Z,15.50
2023-01-13T16:09:54.454Z,15.50
2023-01-13T16:12:21.110Z,15.30
2023-01-13T16:14:47.721Z,18.10
2023-01-13T16:17:21.139Z,16.30
2023-01-13T16:19:48.138Z,18.70
2023-01-13T16:22:15.927Z,17.10
2023-01-13T16:24:43.305Z,16.60
2023-01-13T16:27:19.776Z,13.70
2023-01-13T16:29:47.883Z,12.30
2023-01-13T16:32:14.795Z,11.70
2023-01-13T16:34:41.731Z,12.10
2023-01-13T16:37:19.488Z,11.90
2023-01-13T16:39:46.168Z,11.40
2023-01-13T16:42:12.822Z,11.70
2023-01-13T16:44:39.484Z,12.70
2023-01-13T16:47:07.037Z,11.60
2023-01-13T16:49:34.635Z,12.80
2023-01-13T16:52:01.295Z,12.10
2023-01-13T16:54:27.868Z,12.20
2023-01-13T16:56:54.456Z,10.70
2023-01-13T16:59:21.561Z,12.50
2023-01-13T17:01:48.507Z,13.10
2023-01-13T17:04:17.893Z,15.10
2023-01-13T17:07:00.429Z,11.20
2023-01-13T17:09:29.099Z,9.80
2023-01-13T17:11:56.551Z,10.20
2023-01-13T17:14:24.464Z,11.10
2023-01-13T17:16:59.290Z,9.80
2023-01-13T17:19:26.135Z,10.40
2023-01-13T17:21:52.802Z,9.30
2023-01-13T17:24:19.722Z,9.10
2023-01-13T17:26:49.613Z,10.10
2023-01-13T17:29:19.471Z,10.70
2023-01-13T17:31:46.204Z,9.70
2023-01-13T17:34:13.068Z,9.40
2023-01-13T17:36:39.887Z,10.50
2023-01-13T17:39:06.611Z,10.10
2023-01-13T17:41:33.201Z,9.90
2023-01-13T17:43:59.816Z,9.60
2023-01-13T17:46:26.590Z,10.30
2023-01-13T17:48:54.022Z,11.90
2023-01-13T17:51:25.055Z,12.10
2023-01-13T17:53:53.555Z,15.50
2023-01-13T17:56:20.212Z,15.20
2023-01-13T17:58:46.882Z,12.00
2023-01-13T18:01:19.131Z,12.40
2023-01-13T18:03:46.239Z,15.30
2023-01-13T18:06:22.471Z,13.10
2023-01-13T18:08:50.009Z,13.90
2023-01-13T18:11:19.704Z,12.90
2023-01-13T18:13:49.757Z,11.20
2023-01-13T18:16:18.685Z,11.70
2023-01-13T18:18:47.989Z,9.20
2023-01-13T18:21:40.278Z,12.20
2023-01-13T18:24:30.953Z,13.70
2023-01-13T18:27:17.089Z,12.30
2023-01-13T18:29:44.645Z,9.70
2023-01-13T18:32:12.030Z,11.40
2023-01-13T18:34:39.373Z,11.80
2023-01-13T18:37:07.603Z,11.40
2023-01-13T18:39:37.372Z,10.50
2023-01-13T18:42:23.950Z,9.80
2023-01-13T18:44:50.976Z,13.20
2023-01-13T18:47:19.136Z,10.20
2023-01-13T18:49:46.530Z,8.60
2023-01-13T18:52:13.524Z,9.30
2023-01-13T18:54:40.195Z,10.80
2023-01-13T18:57:06.874Z,8.40
2023-01-13T18:59:34.692Z,13.30
2023-01-13T19:02:02.997Z,11.00
2023-01-13T19:04:29.742Z,12.40
2023-01-13T19:07:00.847Z,18.40
2023-01-13T19:09:29.356Z,14.60
2023-01-13T19:11:57.823Z,21.30
2023-01-13T19:14:35.818Z,14.00
2023-01-13T19:17:09.309Z,11.00
2023-01-13T19:19:44.256Z,12.80
2023-01-13T19:22:13.167Z,11.50
2023-01-13T19:24:43.667Z,13.10
2023-01-13T19:27:14.165Z,10.70
2023-01-13T19:29:46.059Z,9.40
2023-01-13T19:32:22.852Z,8.20
2023-01-13T19:34:51.171Z,10.00
2023-01-13T19:37:18.879Z,11.70
2023-01-13T19:39:45.766Z,8.20
2023-01-13T19:42:32.399Z,9.70
2023-01-13T19:45:17.887Z,10.10
2023-01-13T19:47:45.882Z,11.70
2023-01-13T19:50:13.822Z,15.90
2023-01-13T19:52:42.520Z,16.00
2023-01-13T19:55:11.706Z,12.10
2023-01-13T19:57:41.207Z,14.80
2023-01-13T20:00:10.327Z,20.20
2023-01-13T20:05:12.915Z,9.10
2023-01-13T20:07:40.155Z,10.40
2023-01-13T20:10:07.560Z,8.90
2023-01-13T20:12:34.278Z,9.70
2023-01-13T20:15:00.979Z,9.30
2023-01-13T20:17:27.885Z,7.50
2023-01-13T20:19:55.185Z,7.20
2023-01-13T20:22:21.889Z,6.20
2023-01-13T20:24:52.114Z,6.30
2023-01-13T20:27:19.077Z,7.10
2023-01-13T20:29:45.786Z,7.90
2023-01-13T20:32:14.443Z,10.40
2023-01-13T20:34:41.478Z,10.00
2023-01-13T20:37:10.279Z,11.70
2023-01-13T20:39:39.320Z,12.60
2023-01-13T20:42:27.322Z,12.50
2023-01-13T20:44:55.582Z,29.40
2023-01-13T20:47:24.460Z,21.90
2023-01-13T20:49:53.045Z,10.30
2023-01-13T20:52:20.550Z,7.60
2023-01-13T20:54:47.395Z,7.20
2023-01-13T20:57:16.157Z,7.50
2023-01-13T20:59:46.695Z,8.30
2023-01-13T21:02:18.771Z,8.10
2023-01-13T21:04:46.301Z,7.90
2023-01-13T21:07:15.150Z,7.20
2023-01-13T21:09:43.900Z,7.50
2023-01-13T21:12:33.449Z,5.60
2023-01-13T21:15:20.380Z,6.50
2023-01-13T21:18:12.521Z,7.10
2023-01-13T21:20:41.887Z,6.50
2023-01-13T21:23:13.199Z,6.10
2023-01-13T21:25:40.512Z,5.20
2023-01-13T21:28:10.395Z,8.30
2023-01-13T21:30:39.015Z,9.00
2023-01-13T21:33:06.602Z,8.40
2023-01-13T21:35:34.034Z,6.80
2023-01-13T21:38:00.772Z,7.10
2023-01-13T21:40:27.496Z,6.70
2023-01-13T21:43:12.996Z,7.70
2023-01-13T21:45:58.575Z,6.60
2023-01-13T21:48:25.277Z,7.20
2023-01-13T21:50:51.932Z,6.20
2023-01-13T21:53:18.679Z,6.10
2023-01-13T21:55:50.663Z,5.60
2023-01-13T21:58:17.329Z,6.20
2023-01-13T22:00:45.353Z,5.90
2023-01-13T22:03:14.023Z,5.90
2023-01-13T22:05:41.014Z,6.10
2023-01-13T22:08:07.726Z,5.60
2023-01-13T22:10:35.030Z,5.10
2023-01-13T22:13:22.740Z,5.00
2023-01-13T22:15:49.787Z,4.90
2023-01-13T22:18:18.227Z,4.70
2023-01-13T22:20:45.667Z,4.70
2023-01-13T22:23:12.568Z,5.40
2023-01-13T22:25:39.360Z,5.60
2023-01-13T22:28:08.635Z,5.60
2023-01-13T22:30:35.198Z,5.30
2023-01-13T22:33:01.841Z,4.50
2023-01-13T22:35:28.479Z,4.90
2023-01-13T22:37:55.220Z,4.50
2023-01-13T22:40:21.870Z,4.70
2023-01-13T22:42:48.559Z,4.50
2023-01-13T22:45:15.338Z,4.70
2023-01-13T22:47:42.307Z,4.10
2023-01-13T22:50:10.318Z,4.50
2023-01-13T22:52:37.033Z,4.50
2023-01-13T22:55:04.397Z,5.40
2023-01-13T22:57:46.463Z,4.80
2023-01-13T23:00:15.080Z,3.70
2023-01-13T23:02:41.967Z,5.30
2023-01-13T23:05:08.884Z,4.90
2023-01-13T23:07:36.173Z,4.70
2023-01-13T23:10:03.964Z,4.90
2023-01-13T23:12:30.919Z,4.40
2023-01-13T23:14:57.491Z,4.60
2023-01-13T23:17:24.122Z,4.40
2023-01-13T23:19:50.749Z,4.50
2023-01-13T23:22:17.333Z,4.20
2023-01-13T23:24:44.083Z,4.20
2023-01-13T23:27:12.856Z,4.40
2023-01-13T23:29:39.622Z,4.50
2023-01-13T23:32:06.235Z,4.60
2023-01-13T23:34:32.886Z,4.80
2023-01-13T23:36:59.548Z,3.70
2023-01-13T23:39:26.226Z,5.30
2023-01-13T23:41:52.819Z,5.50
2023-01-13T23:44:19.439Z,5.20
2023-01-13T23:46:46.283Z,4.60
2023-01-13T23:49:12.878Z,4.90
2023-01-13T23:51:39.632Z,5.20
2023-01-13T23:54:06.264Z,5.00
2023-01-13T23:56:33.980Z,4.80
2023-01-13T23:59:00.660Z,5.00
